createdAt,value
2018-04-14T00:00:39.841Z,36.97
2018-04-14T00:03:05.975Z,38.77
2018-04-14T00:05:32.079Z,37.47
2018-04-14T00:07:58.210Z,36.87
2018-04-14T00:10:24.351Z,38.37
2018-04-14T00:12:50.487Z,39.90
2018-04-14T00:15:16.615Z,40.43
2018-04-14T00:17:42.731Z,37.90
2018-04-14T00:20:08.832Z,37.17
2018-04-14T00:22:34.955Z,37.93
2018-04-14T00:25:01.108Z,39.37
2018-04-14T00:27:27.250Z,38.17
2018-04-14T00:29:54.100Z,38.03
2018-04-14T00:32:20.998Z,38.40
2018-04-14T00:34:47.142Z,38.37
2018-04-14T00:37:13.280Z,35.07
2018-04-14T00:39:40.166Z,37.30
2018-04-14T00:42:06.603Z,37.53
2018-04-14T00:44:32.729Z,36.53
2018-04-14T00:46:58.822Z,39.27
2018-04-14T00:49:24.975Z,37.13
2018-04-14T00:51:51.088Z,40.63
2018-04-14T00:54:17.247Z,37.53
2018-04-14T00:56:43.382Z,37.30
2018-04-14T00:59:09.508Z,38.30
2018-04-14T01:01:35.635Z,38.33
2018-04-14T01:04:01.755Z,35.60
2018-04-14T01:06:27.858Z,34.80
2018-04-14T01:08:53.975Z,35.87
2018-04-14T01:11:20.089Z,35.07
2018-04-14T01:13:46.215Z,32.07
2018-04-14T01:16:12.355Z,32.67
2018-04-14T01:18:38.475Z,32.50
2018-04-14T01:21:04.700Z,33.73
2018-04-14T01:23:30.801Z,33.90
2018-04-14T01:25:56.955Z,37.93
2018-04-14T01:28:23.100Z,39.60
2018-04-14T01:30:49.222Z,37.70
2018-04-14T01:33:15.355Z,38.80
2018-04-14T01:35:41.535Z,37.20
2018-04-14T01:38:07.638Z,37.47
2018-04-14T01:40:33.767Z,38.97
2018-04-14T01:42:59.897Z,39.27
2018-04-14T01:45:26.091Z,44.33
2018-04-14T01:47:52.242Z,47.70
2018-04-14T01:50:18.405Z,45.37
2018-04-14T01:52:44.498Z,45.93
2018-04-14T01:55:10.631Z,42.87
2018-04-14T01:57:36.774Z,40.73
2018-04-14T02:00:02.953Z,38.90
2018-04-14T02:02:29.056Z,38.53
2018-04-14T02:04:55.167Z,35.50
2018-04-14T02:07:21.272Z,37.50
2018-04-14T02:09:47.399Z,37.00
2018-04-14T02:12:13.951Z,37.10
2018-04-14T02:14:40.068Z,35.00
2018-04-14T02:17:06.217Z,34.67
2018-04-14T02:19:33.071Z,34.80
2018-04-14T02:21:59.243Z,36.40
2018-04-14T02:24:25.383Z,33.47
2018-04-14T02:26:51.499Z,31.63
2018-04-14T02:29:17.596Z,32.93
2018-04-14T02:31:43.725Z,33.17
2018-04-14T02:34:09.838Z,31.27
2018-04-14T02:36:35.955Z,31.20
2018-04-14T02:39:02.880Z,30.27
2018-04-14T02:41:29.010Z,30.30
2018-04-14T02:43:55.152Z,27.77
2018-04-14T02:46:21.261Z,28.67
2018-04-14T02:48:47.380Z,29.60
2018-04-14T02:51:13.487Z,30.20
2018-04-14T02:53:39.624Z,31.93
2018-04-14T02:56:05.743Z,33.50
2018-04-14T02:58:31.872Z,35.17
2018-04-14T03:00:57.998Z,35.70
2018-04-14T03:03:24.103Z,35.57
2018-04-14T03:05:50.239Z,37.20
2018-04-14T03:08:16.371Z,38.00
2018-04-14T03:10:42.474Z,39.50
2018-04-14T03:13:08.595Z,35.80
2018-04-14T03:15:34.746Z,35.30
2018-04-14T03:18:00.856Z,35.10
2018-04-14T03:20:26.958Z,34.17
2018-04-14T03:22:53.066Z,33.70
2018-04-14T03:25:19.608Z,32.97
2018-04-14T03:27:45.704Z,30.87
2018-04-14T03:30:11.875Z,34.07
2018-04-14T03:32:37.974Z,31.43
2018-04-14T03:35:04.098Z,34.50
2018-04-14T03:37:30.242Z,32.47
2018-04-14T03:39:56.370Z,31.70
2018-04-14T03:42:22.518Z,32.40
2018-04-14T03:44:48.640Z,30.60
2018-04-14T03:47:14.895Z,30.60
2018-04-14T03:49:41.197Z,29.77
2018-04-14T03:52:07.319Z,28.60
2018-04-14T03:54:33.425Z,31.70
2018-04-14T03:56:59.567Z,30.80
2018-04-14T03:59:25.675Z,30.00
2018-04-14T04:01:51.808Z,32.20
2018-04-14T04:04:17.903Z,31.53
2018-04-14T04:06:44.038Z,31.93
2018-04-14T04:09:10.158Z,29.30
2018-04-14T04:11:36.266Z,30.40
2018-04-14T04:14:02.395Z,31.57
2018-04-14T04:16:28.511Z,30.37
2018-04-14T04:19:07.551Z,30.43
2018-04-14T04:21:46.007Z,28.43
2018-04-14T04:24:25.203Z,30.80
2018-04-14T04:26:51.362Z,28.97
2018-04-14T04:29:17.454Z,29.43
2018-04-14T04:31:43.571Z,28.57
2018-04-14T04:34:09.671Z,30.53
2018-04-14T04:36:36.600Z,31.37
2018-04-14T04:39:02.771Z,30.47
2018-04-14T04:41:28.891Z,28.43
2018-04-14T04:43:55.010Z,29.37
2018-04-14T04:46:21.212Z,29.27
2018-04-14T04:48:47.351Z,28.30
2018-04-14T04:51:13.448Z,28.83
2018-04-14T04:53:39.593Z,28.43
2018-04-14T04:56:06.445Z,27.27
2018-04-14T04:58:32.602Z,29.13
2018-04-14T05:00:58.680Z,25.93
2018-04-14T05:03:25.558Z,28.23
2018-04-14T05:05:51.655Z,27.87
2018-04-14T05:08:17.786Z,25.60
2018-04-14T05:10:43.909Z,28.03
2018-04-14T05:13:10.031Z,26.40
2018-04-14T05:15:36.139Z,24.90
2018-04-14T05:18:02.411Z,26.13
2018-04-14T05:20:29.259Z,25.80
2018-04-14T05:22:55.439Z,25.17
2018-04-14T05:25:21.613Z,24.40
2018-04-14T05:27:47.790Z,25.53
2018-04-14T05:30:14.778Z,24.93
2018-04-14T05:32:41.761Z,26.07
2018-04-14T05:35:07.945Z,25.97
2018-04-14T05:37:34.156Z,25.30
2018-04-14T05:40:01.103Z,26.60
2018-04-14T05:42:27.319Z,25.17
2018-04-14T05:44:53.463Z,26.63
2018-04-14T05:47:19.620Z,25.73
2018-04-14T05:49:46.700Z,28.33
2018-04-14T05:52:13.685Z,28.20
2018-04-14T05:54:40.466Z,29.47
2018-04-14T05:57:06.933Z,27.17
2018-04-14T05:59:33.076Z,26.70
2018-04-14T06:01:59.267Z,26.00
2018-04-14T06:04:30.767Z,27.40
2018-04-14T06:06:56.978Z,26.30
2018-04-14T06:09:23.152Z,27.27
2018-04-14T06:11:49.322Z,26.40
2018-04-14T06:14:16.502Z,24.60
2018-04-14T06:16:42.683Z,27.43
2018-04-14T06:19:09.488Z,29.10
2018-04-14T06:21:35.688Z,28.97
2018-04-14T06:24:02.213Z,31.10
2018-04-14T06:26:28.395Z,30.20
2018-04-14T06:28:54.553Z,31.63
2018-04-14T06:31:20.736Z,30.60
2018-04-14T06:33:47.706Z,31.67
2018-04-14T06:36:17.201Z,32.17
2018-04-14T06:38:43.437Z,34.40
2018-04-14T06:41:10.421Z,33.23
2018-04-14T06:43:36.743Z,33.40
2018-04-14T06:46:02.995Z,34.43
2018-04-14T06:48:33.559Z,40.10
2018-04-14T06:51:00.558Z,39.40
2018-04-14T06:53:27.176Z,37.43
2018-04-14T06:55:53.368Z,36.73
2018-04-14T06:58:23.461Z,37.17
2018-04-14T07:00:58.717Z,39.10
2018-04-14T07:03:29.243Z,34.10
2018-04-14T07:05:59.608Z,36.70
2018-04-14T07:08:25.839Z,33.73
2018-04-14T07:10:52.008Z,37.57
2018-04-14T07:13:22.070Z,36.43
2018-04-14T07:15:48.243Z,37.00
2018-04-14T07:18:14.403Z,34.40
2018-04-14T07:20:40.608Z,33.10
2018-04-14T07:23:06.915Z,32.33
2018-04-14T07:25:33.268Z,37.60
2018-04-14T07:27:59.887Z,39.07
2018-04-14T07:30:26.138Z,40.67
2018-04-14T07:32:53.681Z,38.20
2018-04-14T07:35:19.970Z,39.70
2018-04-14T07:37:46.109Z,38.50
2018-04-14T07:40:12.310Z,38.80
2018-04-14T07:42:38.692Z,38.30
2018-04-14T07:45:05.625Z,38.53
2018-04-14T07:47:31.754Z,36.90
2018-04-14T07:49:57.930Z,38.57
2018-04-14T07:52:28.060Z,38.10
2018-04-14T07:54:58.091Z,36.50
2018-04-14T07:57:24.256Z,36.00
2018-04-14T07:59:55.655Z,35.40
2018-04-14T08:02:21.847Z,34.60
2018-04-14T08:04:49.358Z,31.40
2018-04-14T08:07:20.374Z,32.90
2018-04-14T08:09:46.588Z,30.70
2018-04-14T08:12:12.781Z,26.20
2018-04-14T08:14:38.907Z,27.63
2018-04-14T08:17:05.118Z,24.77
2018-04-14T08:19:31.267Z,25.37
2018-04-14T08:21:58.165Z,24.40
2018-04-14T08:24:24.415Z,26.60
2018-04-14T08:26:50.619Z,25.57
2018-04-14T08:29:16.752Z,26.30
2018-04-14T08:31:49.078Z,26.07
2018-04-14T08:34:15.297Z,28.83
2018-04-14T08:36:41.439Z,25.10
2018-04-14T08:39:07.631Z,24.00
2018-04-14T08:41:34.492Z,25.20
2018-04-14T08:44:10.083Z,23.90
2018-04-14T08:46:36.429Z,23.30
2018-04-14T08:49:02.655Z,23.57
2018-04-14T08:51:28.799Z,26.20
2018-04-14T08:53:55.727Z,27.63
2018-04-14T08:56:22.479Z,22.50
2018-04-14T08:58:49.479Z,21.83
2018-04-14T09:01:15.680Z,23.47
2018-04-14T09:03:47.121Z,22.43
2018-04-14T09:06:14.138Z,22.80
2018-04-14T09:08:40.318Z,20.63
2018-04-14T09:11:07.217Z,21.20
2018-04-14T09:13:33.621Z,20.60
2018-04-14T09:15:59.822Z,20.47
2018-04-14T09:21:12.533Z,18.70
2018-04-14T09:23:39.613Z,18.50
2018-04-14T09:26:05.760Z,16.40
2018-04-14T09:28:31.917Z,18.10
2018-04-14T09:30:58.833Z,18.57
2018-04-14T09:33:25.201Z,18.27
2018-04-14T09:35:51.443Z,17.10
2018-04-14T09:38:18.323Z,16.87
2018-04-14T09:40:44.521Z,16.97
2018-04-14T09:43:11.671Z,15.73
2018-04-14T09:45:37.887Z,17.27
2018-04-14T09:48:04.031Z,16.10
2018-04-14T09:50:30.214Z,17.63
2018-04-14T09:53:01.011Z,18.03
2018-04-14T09:55:27.658Z,16.10
2018-04-14T09:57:58.185Z,15.03
2018-04-14T10:00:26.134Z,14.43
2018-04-14T10:05:57.061Z,15.53
2018-04-14T10:08:33.128Z,13.37
2018-04-14T10:10:59.298Z,14.23
2018-04-14T10:13:26.327Z,15.00
2018-04-14T10:15:52.730Z,14.20
2018-04-14T10:18:18.930Z,15.30
2018-04-14T10:20:53.415Z,17.07
2018-04-14T10:23:19.596Z,15.07
2018-04-14T10:25:54.775Z,15.73
2018-04-14T10:28:23.965Z,13.23
2018-04-14T10:30:50.476Z,15.37
2018-04-14T10:33:21.090Z,15.10
2018-04-14T10:35:47.285Z,15.03
2018-04-14T10:38:14.701Z,14.37
2018-04-14T10:40:41.239Z,13.80
2018-04-14T10:43:11.879Z,11.87
2018-04-14T10:45:38.051Z,12.20
2018-04-14T10:48:04.494Z,10.80
2018-04-14T10:50:31.393Z,13.70
2018-04-14T10:52:57.617Z,11.07
2018-04-14T10:55:23.821Z,11.20
2018-04-14T10:57:50.771Z,14.30
2018-04-14T11:00:17.007Z,12.17
2018-04-14T11:02:43.235Z,11.23
2018-04-14T11:05:10.406Z,10.40
2018-04-14T11:07:37.251Z,10.43
2018-04-14T11:10:03.483Z,9.40
2018-04-14T11:12:30.322Z,10.20
2018-04-14T11:14:56.726Z,9.57
2018-04-14T11:17:22.993Z,8.77
2018-04-14T11:19:49.445Z,8.20
2018-04-14T11:22:16.068Z,8.60
2018-04-14T11:24:42.220Z,8.70
2018-04-14T11:27:08.397Z,10.00
2018-04-14T11:29:39.759Z,10.33
2018-04-14T11:32:09.692Z,10.20
2018-04-14T11:34:35.899Z,10.93
2018-04-14T11:37:02.094Z,9.97
2018-04-14T11:39:36.563Z,9.80
2018-04-14T11:42:03.516Z,9.30
2018-04-14T11:44:29.680Z,8.70
2018-04-14T11:46:56.605Z,9.03
2018-04-14T11:49:22.797Z,8.10
2018-04-14T11:51:49.055Z,8.47
2018-04-14T11:54:15.249Z,6.27
2018-04-14T11:56:42.149Z,6.20
2018-04-14T11:59:09.747Z,6.67
2018-04-14T12:01:35.899Z,7.90
2018-04-14T12:04:02.136Z,7.60
2018-04-14T12:06:28.344Z,7.50
2018-04-14T12:08:54.536Z,9.03
2018-04-14T12:11:25.349Z,7.90
2018-04-14T12:13:51.887Z,5.70
2018-04-14T12:16:18.292Z,5.03
2018-04-14T12:18:45.376Z,4.10
2018-04-14T12:21:16.731Z,4.63
2018-04-14T12:23:42.979Z,4.90
2018-04-14T12:26:09.166Z,5.30
2018-04-14T12:28:42.091Z,4.67
2018-04-14T12:31:08.428Z,5.20
2018-04-14T12:33:35.558Z,4.33
2018-04-14T12:36:05.734Z,5.13
2018-04-14T12:38:32.776Z,5.60
2018-04-14T12:40:59.646Z,4.17
2018-04-14T12:43:25.838Z,5.40
2018-04-14T12:45:52.215Z,4.20
2018-04-14T12:48:19.108Z,5.37
2018-04-14T12:50:45.287Z,5.07
2018-04-14T12:53:12.640Z,4.30
2018-04-14T12:55:43.494Z,3.47
2018-04-14T12:58:14.256Z,3.50
2018-04-14T13:00:45.604Z,2.97
2018-04-14T13:03:17.575Z,2.30
2018-04-14T13:05:43.777Z,2.80
2018-04-14T13:08:09.944Z,3.30
2018-04-14T13:10:44.699Z,3.60
2018-04-14T13:13:11.223Z,3.87
2018-04-14T13:15:37.443Z,3.47
2018-04-14T13:18:04.131Z,3.40
2018-04-14T13:20:31.063Z,3.10
2018-04-14T13:22:57.249Z,2.83
2018-04-14T13:25:27.831Z,3.37
2018-04-14T13:27:54.052Z,2.97
2018-04-14T13:30:20.288Z,2.60
2018-04-14T13:32:47.099Z,3.17
2018-04-14T13:35:17.129Z,3.30
2018-04-14T13:37:43.309Z,3.83
2018-04-14T13:40:10.983Z,4.10
2018-04-14T13:42:38.115Z,3.13
2018-04-14T13:45:04.247Z,3.57
2018-04-14T13:47:31.889Z,3.37
2018-04-14T13:49:58.060Z,3.30
2018-04-14T13:52:24.887Z,3.13
2018-04-14T13:54:51.074Z,2.43
2018-04-14T13:57:17.336Z,2.30
2018-04-14T13:59:43.490Z,2.90
2018-04-14T14:02:10.724Z,2.63
2018-04-14T14:04:36.963Z,2.70
2018-04-14T14:07:07.166Z,3.07
2018-04-14T14:09:33.928Z,2.77
2018-04-14T14:12:00.119Z,2.00
2018-04-14T14:14:26.357Z,2.90
2018-04-14T14:16:53.888Z,2.10
2018-04-14T14:19:20.100Z,2.73
2018-04-14T14:21:55.034Z,3.37
2018-04-14T14:24:21.131Z,2.40
2018-04-14T14:26:47.565Z,2.40
2018-04-14T14:29:14.087Z,2.10
2018-04-14T14:31:40.891Z,2.50
2018-04-14T14:34:07.859Z,2.20
2018-04-14T14:36:34.224Z,2.00
2018-04-14T14:39:00.448Z,3.17
2018-04-14T14:41:27.383Z,2.43
2018-04-14T14:43:53.576Z,2.63
2018-04-14T14:46:20.534Z,1.97
2018-04-14T14:48:50.459Z,2.40
2018-04-14T14:51:16.646Z,2.47
2018-04-14T14:53:43.259Z,2.70
2018-04-14T14:56:09.487Z,2.70
2018-04-14T14:58:35.627Z,2.70
2018-04-14T15:01:02.072Z,2.53
2018-04-14T15:03:32.472Z,2.10
2018-04-14T15:06:08.521Z,2.23
2018-04-14T15:08:43.725Z,2.80
2018-04-14T15:11:22.265Z,1.97
2018-04-14T15:13:49.010Z,2.33
2018-04-14T15:16:16.398Z,1.93
2018-04-14T15:18:58.058Z,2.30
2018-04-14T15:21:24.259Z,2.80
2018-04-14T15:23:50.434Z,2.60
2018-04-14T15:26:17.772Z,2.20
2018-04-14T15:28:44.081Z,2.30
2018-04-14T15:31:14.727Z,1.93
2018-04-14T15:33:41.643Z,1.80
2018-04-14T15:36:08.423Z,1.90
2018-04-14T15:38:34.644Z,1.90
2018-04-14T15:41:00.836Z,1.63
2018-04-14T15:43:27.810Z,2.33
2018-04-14T15:45:57.051Z,2.00
2018-04-14T15:48:23.217Z,2.17
2018-04-14T15:50:53.477Z,2.30
2018-04-14T15:53:23.737Z,2.40
2018-04-14T15:55:50.425Z,2.00
2018-04-14T15:58:18.929Z,1.93
2018-04-14T16:00:45.842Z,1.90
2018-04-14T16:03:13.109Z,2.10
2018-04-14T16:05:44.338Z,1.63
2018-04-14T16:08:10.530Z,1.57
2018-04-14T16:10:40.729Z,2.20
2018-04-14T16:13:07.141Z,2.03
2018-04-14T16:15:33.286Z,2.00
2018-04-14T16:17:59.472Z,1.87
2018-04-14T16:20:27.619Z,2.20
2018-04-14T16:22:55.615Z,1.60
2018-04-14T16:25:22.039Z,1.97
2018-04-14T16:27:48.220Z,1.90
2018-04-14T16:30:14.847Z,1.80
2018-04-14T16:32:45.168Z,1.77
2018-04-14T16:35:11.415Z,1.67
2018-04-14T16:37:41.069Z,1.83
2018-04-14T16:40:08.253Z,2.30
2018-04-14T16:42:34.386Z,1.80
2018-04-14T16:45:00.597Z,2.00
2018-04-14T16:47:30.704Z,1.73
2018-04-14T16:50:01.769Z,1.93
2018-04-14T16:52:32.143Z,2.00
2018-04-14T16:54:58.386Z,1.77
2018-04-14T16:57:33.539Z,2.00
2018-04-14T17:00:00.647Z,1.60
2018-04-14T17:02:26.823Z,1.93
2018-04-14T17:04:53.124Z,1.90
2018-04-14T17:07:19.420Z,1.73
2018-04-14T17:09:49.499Z,1.87
2018-04-14T17:12:16.501Z,1.83
2018-04-14T17:14:42.647Z,1.80
2018-04-14T17:17:08.907Z,1.77
2018-04-14T17:19:35.182Z,2.23
2018-04-14T17:22:01.663Z,2.00
2018-04-14T17:24:27.843Z,2.40
2018-04-14T17:27:02.707Z,2.20
2018-04-14T17:29:28.892Z,2.60
2018-04-14T17:31:55.947Z,2.30
2018-04-14T17:34:22.098Z,2.37
2018-04-14T17:36:48.348Z,2.30
2018-04-14T17:39:14.532Z,2.47
2018-04-14T17:41:40.717Z,2.50
2018-04-14T17:44:06.908Z,1.90
2018-04-14T17:46:35.184Z,1.80
2018-04-14T17:49:02.498Z,2.37
2018-04-14T17:51:28.923Z,2.63
2018-04-14T17:54:00.056Z,4.20
2018-04-14T17:56:26.183Z,4.60
2018-04-14T17:58:52.918Z,4.90
2018-04-14T18:01:19.787Z,5.23
2018-04-14T18:03:46.623Z,4.63
2018-04-14T18:06:22.424Z,3.97
2018-04-14T18:08:48.591Z,5.00
2018-04-14T18:11:14.995Z,6.47
2018-04-14T18:13:41.203Z,5.20
2018-04-14T18:16:07.407Z,5.17
2018-04-14T18:18:34.594Z,10.73
2018-04-14T18:21:01.442Z,10.03
2018-04-14T18:23:32.534Z,5.33
2018-04-14T18:25:59.600Z,5.93
2018-04-14T18:28:26.501Z,10.70
2018-04-14T18:30:57.358Z,12.23
2018-04-14T18:33:23.754Z,9.30
2018-04-14T18:35:52.211Z,6.67
2018-04-14T18:38:19.483Z,6.97
2018-04-14T18:40:49.739Z,8.07
2018-04-14T18:43:17.464Z,8.70
2018-04-14T18:45:44.199Z,8.53
2018-04-14T18:48:10.432Z,6.67
2018-04-14T18:50:40.545Z,6.07
2018-04-14T18:53:06.736Z,6.70
2018-04-14T18:55:33.096Z,6.50
2018-04-14T18:58:00.058Z,6.93
2018-04-14T19:00:26.266Z,5.57
2018-04-14T19:02:52.426Z,5.40
2018-04-14T19:05:24.417Z,4.60
2018-04-14T19:07:56.636Z,4.63
2018-04-14T19:10:26.799Z,3.90
2018-04-14T19:12:53.009Z,4.80
2018-04-14T19:15:19.996Z,5.07
2018-04-14T19:17:46.184Z,6.13
2018-04-14T19:20:12.596Z,6.70
2018-04-14T19:22:38.813Z,7.67
2018-04-14T19:25:04.962Z,10.87
2018-04-14T19:27:31.174Z,9.97
2018-04-14T19:29:57.358Z,6.93
2018-04-14T19:32:28.657Z,8.30
2018-04-14T19:34:54.816Z,11.57
2018-04-14T19:37:21.590Z,18.50
2018-04-14T19:39:48.390Z,12.80
2018-04-14T19:42:14.624Z,7.43
2018-04-14T19:44:40.820Z,4.50
2018-04-14T19:47:07.073Z,4.20
2018-04-14T19:49:33.988Z,4.13
2018-04-14T19:52:00.265Z,3.33
2018-04-14T19:54:26.497Z,3.33
2018-04-14T19:56:53.707Z,5.60
2018-04-14T19:59:20.712Z,5.53
2018-04-14T20:01:46.868Z,3.53
2018-04-14T20:04:13.135Z,3.80
2018-04-14T20:06:41.826Z,3.33
2018-04-14T20:09:08.268Z,4.37
2018-04-14T20:11:34.471Z,13.20
2018-04-14T20:14:01.573Z,7.53
2018-04-14T20:16:27.801Z,6.67
2018-04-14T20:18:54.038Z,5.37
2018-04-14T20:21:24.728Z,3.77
2018-04-14T20:23:50.944Z,3.33
2018-04-14T20:26:17.220Z,3.27
2018-04-14T20:28:44.011Z,4.03
2018-04-14T20:31:10.266Z,4.17
2018-04-14T20:33:36.687Z,3.90
2018-04-14T20:36:02.947Z,3.83
2018-04-14T20:38:30.071Z,3.20
2018-04-14T20:40:56.630Z,2.80
2018-04-14T20:43:22.920Z,3.30
2018-04-14T20:45:49.134Z,5.87
2018-04-14T20:48:17.253Z,5.93
2018-04-14T20:50:44.481Z,4.43
2018-04-14T20:53:10.659Z,4.10
2018-04-14T20:55:36.905Z,3.30
2018-04-14T20:58:03.496Z,3.20
2018-04-14T21:00:30.243Z,3.53
2018-04-14T21:02:56.776Z,3.87
2018-04-14T21:05:35.276Z,2.93
2018-04-14T21:08:05.821Z,3.33
2018-04-14T21:13:04.071Z,3.50
2018-04-14T21:15:30.295Z,3.50
2018-04-14T21:17:57.547Z,2.87
2018-04-14T21:20:23.799Z,3.53
2018-04-14T21:22:50.006Z,3.00
2018-04-14T21:25:16.890Z,3.30
2018-04-14T21:27:43.495Z,3.40
2018-04-14T21:30:09.779Z,3.50
2018-04-14T21:32:36.713Z,4.03
2018-04-14T21:35:04.074Z,3.70
2018-04-14T21:37:31.632Z,3.87
2018-04-14T21:40:02.854Z,4.03
2018-04-14T21:42:29.088Z,3.43
2018-04-14T21:44:55.312Z,3.73
2018-04-14T21:47:21.498Z,3.70
2018-04-14T21:49:48.401Z,3.80
2018-04-14T21:52:14.649Z,5.30
2018-04-14T21:54:41.262Z,3.53
2018-04-14T21:57:08.130Z,4.40
2018-04-14T21:59:34.296Z,3.40
2018-04-14T22:02:00.423Z,3.17
2018-04-14T22:04:26.618Z,3.70
2018-04-14T22:06:52.774Z,3.97
2018-04-14T22:09:18.913Z,3.10
2018-04-14T22:11:45.083Z,3.77
2018-04-14T22:14:24.161Z,3.47
2018-04-14T22:16:50.303Z,3.10
2018-04-14T22:19:17.190Z,3.70
2018-04-14T22:21:43.339Z,3.70
2018-04-14T22:24:09.465Z,3.70
2018-04-14T22:26:35.600Z,4.00
2018-04-14T22:29:01.859Z,3.63
2018-04-14T22:31:28.012Z,4.27
2018-04-14T22:33:54.135Z,3.90
2018-04-14T22:36:20.292Z,4.70
2018-04-14T22:38:46.403Z,4.17
2018-04-14T22:41:12.528Z,3.67
2018-04-14T22:43:38.646Z,3.93
2018-04-14T22:46:04.792Z,4.10
2018-04-14T22:48:30.907Z,4.27
2018-04-14T22:50:57.023Z,4.20
2018-04-14T22:53:23.177Z,5.27
2018-04-14T22:55:49.277Z,4.80
2018-04-14T22:58:15.431Z,4.23
2018-04-14T23:00:41.589Z,4.50
2018-04-14T23:03:07.736Z,4.80
2018-04-14T23:05:33.842Z,5.17
2018-04-14T23:07:59.958Z,5.47
2018-04-14T23:10:26.101Z,4.20
2018-04-14T23:12:52.264Z,4.90
2018-04-14T23:15:18.392Z,4.87
2018-04-14T23:17:44.523Z,4.27
2018-04-14T23:20:10.638Z,4.83
2018-04-14T23:22:36.764Z,5.00
2018-04-14T23:25:02.891Z,5.70
2018-04-14T23:27:29.040Z,5.60
2018-04-14T23:29:55.603Z,5.70
2018-04-14T23:32:22.455Z,6.30
2018-04-14T23:34:48.605Z,6.53
2018-04-14T23:37:14.723Z,6.67
2018-04-14T23:39:40.887Z,5.80
2018-04-14T23:42:07.008Z,6.00
2018-04-14T23:44:33.147Z,5.80
2018-04-14T23:46:59.275Z,5.50
2018-04-14T23:49:25.501Z,6.03
2018-04-14T23:51:51.687Z,6.07
2018-04-14T23:54:17.832Z,6.13
2018-04-14T23:56:43.954Z,5.80
2018-04-14T23:59:10.103Z,4.93
